createdAt,value
2023-08-02T00:01:55.025Z,1.10
2023-08-02T00:04:23.007Z,2.72
2023-08-02T00:06:50.997Z,2.88
2023-08-02T00:09:18.941Z,2.38
2023-08-02T00:11:46.877Z,2.30
2023-08-02T00:14:14.814Z,1.02
2023-08-02T00:16:44.471Z,1.42
2023-08-02T00:19:12.567Z,1.55
2023-08-02T00:21:40.513Z,3.33
2023-08-02T00:24:08.638Z,1.80
2023-08-02T00:26:37.843Z,0.93
2023-08-02T00:29:07.382Z,1.85
2023-08-02T00:31:35.373Z,1.85
2023-08-02T00:34:04.608Z,0.60
2023-08-02T00:36:32.639Z,1.02
2023-08-02T00:39:00.745Z,1.08
2023-08-02T00:41:28.786Z,1.10
2023-08-02T00:43:56.666Z,1.33
2023-08-02T00:46:24.771Z,3.05
2023-08-02T00:48:52.918Z,0.90
2023-08-02T00:51:22.215Z,2.78
2023-08-02T00:53:50.255Z,1.40
2023-08-02T00:56:18.158Z,1.30
2023-08-02T00:58:46.122Z,1.13
2023-08-02T01:01:14.156Z,2.13
2023-08-02T01:03:42.882Z,1.00
2023-08-02T01:06:13.075Z,2.00
2023-08-02T01:08:43.302Z,0.60
2023-08-02T01:11:12.782Z,0.60
2023-08-02T01:13:41.288Z,0.98
2023-08-02T01:16:09.364Z,1.40
2023-08-02T01:18:37.340Z,1.77
2023-08-02T01:21:06.582Z,1.05
2023-08-02T01:23:34.625Z,2.50
2023-08-02T01:26:02.889Z,0.98
2023-08-02T01:28:30.378Z,0.90
2023-08-02T01:30:58.258Z,1.00
2023-08-02T01:33:26.702Z,1.95
2023-08-02T01:35:54.738Z,2.03
2023-08-02T01:38:24.111Z,2.15
2023-08-02T01:40:52.072Z,1.20
2023-08-02T01:43:19.977Z,2.88
2023-08-02T01:45:49.736Z,1.13
2023-08-02T01:48:17.842Z,0.68
2023-08-02T01:50:48.275Z,1.73
2023-08-02T01:53:16.271Z,0.77
2023-08-02T01:55:45.797Z,0.98
2023-08-02T01:58:13.788Z,0.77
2023-08-02T02:00:42.622Z,1.45
2023-08-02T02:03:10.646Z,0.60
2023-08-02T02:05:38.961Z,1.42
2023-08-02T02:08:06.988Z,0.68
2023-08-02T02:10:34.921Z,0.40
2023-08-02T02:13:04.396Z,0.77
2023-08-02T02:15:32.387Z,0.60
2023-08-02T02:18:00.340Z,0.90
2023-08-02T02:20:28.364Z,0.82
2023-08-02T02:22:58.559Z,0.88
2023-08-02T02:25:26.576Z,0.70
2023-08-02T02:27:55.542Z,0.98
2023-08-02T02:30:24.950Z,1.00
2023-08-02T02:32:53.680Z,0.52
2023-08-02T02:35:21.669Z,0.80
2023-08-02T02:37:49.702Z,1.38
2023-08-02T02:40:18.829Z,0.93
2023-08-02T02:42:47.012Z,0.85
2023-08-02T02:45:15.330Z,1.00
2023-08-02T02:47:44.667Z,1.42
2023-08-02T02:50:13.150Z,0.75
2023-08-02T02:52:42.141Z,0.47
2023-08-02T02:55:10.602Z,1.10
2023-08-02T02:57:38.685Z,0.82
2023-08-02T03:00:07.555Z,0.43
2023-08-02T03:02:35.524Z,1.27
2023-08-02T03:05:05.016Z,0.75
2023-08-02T03:07:32.976Z,1.05
2023-08-02T03:10:01.000Z,2.05
2023-08-02T03:12:29.010Z,0.50
2023-08-02T03:14:56.856Z,2.78
2023-08-02T03:17:24.889Z,0.40
2023-08-02T03:19:52.737Z,0.52
2023-08-02T03:22:22.021Z,0.30
2023-08-02T03:24:50.032Z,0.65
2023-08-02T03:27:17.936Z,1.00
2023-08-02T03:29:45.913Z,0.93
2023-08-02T03:32:14.059Z,1.05
2023-08-02T03:34:42.037Z,0.55
2023-08-02T03:37:09.967Z,1.30
2023-08-02T03:39:39.226Z,0.88
2023-08-02T03:42:08.594Z,0.50
2023-08-02T03:44:36.491Z,0.88
2023-08-02T03:47:04.429Z,0.40
2023-08-02T03:49:35.303Z,0.60
2023-08-02T03:52:03.664Z,0.57
2023-08-02T03:54:31.631Z,0.55
2023-08-02T03:57:01.002Z,0.40
2023-08-02T03:59:28.929Z,0.70
2023-08-02T04:01:56.944Z,1.05
2023-08-02T04:04:24.921Z,1.00
2023-08-02T04:06:53.007Z,0.90
2023-08-02T04:09:20.936Z,1.38
2023-08-02T04:11:48.922Z,0.40
2023-08-02T04:14:18.196Z,1.27
2023-08-02T04:16:46.464Z,0.90
2023-08-02T04:19:14.994Z,0.75
2023-08-02T04:21:48.953Z,0.95
2023-08-02T04:24:16.850Z,0.75
2023-08-02T04:26:44.971Z,0.40
2023-08-02T04:29:13.291Z,1.27
2023-08-02T04:31:42.656Z,0.32
2023-08-02T04:34:10.569Z,0.60
2023-08-02T04:36:38.586Z,0.55
2023-08-02T04:39:07.971Z,0.50
2023-08-02T04:41:36.229Z,0.57
2023-08-02T04:44:04.186Z,0.70
2023-08-02T04:46:32.156Z,0.50
2023-08-02T04:49:01.461Z,0.65
2023-08-02T04:51:29.790Z,1.40
2023-08-02T04:53:57.731Z,2.47
2023-08-02T04:56:25.686Z,0.45
2023-08-02T04:58:53.649Z,0.38
2023-08-02T05:01:21.754Z,0.82
2023-08-02T05:03:49.763Z,1.50
2023-08-02T05:06:19.119Z,0.38
2023-08-02T05:08:47.085Z,0.73
2023-08-02T05:11:14.978Z,1.75
2023-08-02T05:13:42.982Z,0.70
2023-08-02T05:16:13.363Z,0.95
2023-08-02T05:18:41.337Z,0.40
2023-08-02T05:21:12.606Z,0.43
2023-08-02T05:23:41.938Z,0.30
2023-08-02T05:26:09.951Z,0.30
2023-08-02T05:28:38.051Z,0.32
2023-08-02T05:31:13.184Z,0.50
2023-08-02T05:33:41.170Z,1.40
2023-08-02T05:36:12.503Z,0.20
2023-08-02T05:38:42.018Z,0.50
2023-08-02T05:41:10.045Z,0.43
2023-08-02T05:43:42.764Z,0.30
2023-08-02T05:46:10.849Z,0.57
2023-08-02T05:48:38.790Z,0.30
2023-08-02T05:51:06.849Z,0.40
2023-08-02T05:53:34.812Z,0.55
2023-08-02T05:56:04.138Z,0.70
2023-08-02T05:58:32.120Z,1.27
2023-08-02T06:01:00.188Z,0.30
2023-08-02T06:03:28.229Z,0.50
2023-08-02T06:05:56.270Z,1.85
2023-08-02T06:08:24.302Z,0.30
2023-08-02T06:10:52.296Z,0.60
2023-08-02T06:13:21.709Z,0.40
2023-08-02T06:15:49.780Z,0.30
2023-08-02T06:18:17.766Z,0.30
2023-08-02T06:20:45.894Z,0.43
2023-08-02T06:23:13.791Z,0.30
2023-08-02T06:25:41.766Z,0.25
2023-08-02T06:28:09.801Z,0.30
2023-08-02T06:30:39.329Z,0.95
2023-08-02T06:33:07.416Z,0.50
2023-08-02T06:35:35.766Z,0.55
2023-08-02T06:38:03.813Z,0.57
2023-08-02T06:40:31.864Z,0.30
2023-08-02T06:42:59.900Z,0.50
2023-08-02T06:45:27.934Z,0.60
2023-08-02T06:47:57.350Z,1.48
2023-08-02T06:50:25.533Z,0.30
2023-08-02T06:52:53.675Z,0.85
2023-08-02T06:55:21.732Z,0.60
2023-08-02T06:57:49.759Z,0.82
2023-08-02T07:00:17.992Z,0.30
2023-08-02T07:02:46.058Z,0.50
2023-08-02T07:05:15.566Z,4.25
2023-08-02T07:07:43.662Z,6.97
2023-08-02T07:10:11.717Z,5.78
2023-08-02T07:12:39.755Z,5.05
2023-08-02T07:15:08.081Z,3.42
2023-08-02T07:17:36.146Z,8.52
2023-08-02T07:20:04.530Z,5.95
2023-08-02T07:22:33.900Z,7.90
2023-08-02T07:25:02.040Z,22.35
2023-08-02T07:27:30.070Z,4.72
2023-08-02T07:29:58.041Z,5.85
2023-08-02T07:32:26.853Z,11.45
2023-08-02T07:34:54.950Z,7.65
2023-08-02T07:37:23.014Z,6.15
2023-08-02T07:39:52.417Z,9.00
2023-08-02T07:42:20.460Z,17.08
2023-08-02T07:45:01.881Z,8.98
2023-08-02T07:47:29.984Z,7.40
2023-08-02T07:49:58.053Z,6.43
2023-08-02T07:52:26.074Z,5.75
2023-08-02T07:54:56.635Z,5.85
2023-08-02T07:57:25.193Z,6.57
2023-08-02T07:59:53.264Z,8.75
2023-08-02T08:02:21.336Z,9.90
2023-08-02T08:04:49.466Z,6.15
2023-08-02T08:07:17.645Z,6.68
2023-08-02T08:09:45.768Z,9.35
2023-08-02T08:12:15.194Z,13.48
2023-08-02T08:14:43.378Z,8.27
2023-08-02T08:17:11.440Z,10.90
2023-08-02T08:19:39.575Z,11.95
2023-08-02T08:22:07.595Z,11.50
2023-08-02T08:24:35.656Z,8.65
2023-08-02T08:27:04.014Z,8.52
2023-08-02T08:29:33.436Z,6.07
2023-08-02T08:32:01.554Z,7.38
2023-08-02T08:34:29.621Z,7.32
2023-08-02T08:36:57.766Z,5.32
2023-08-02T08:39:25.830Z,8.40
2023-08-02T08:41:53.927Z,3.53
2023-08-02T08:44:21.954Z,5.32
2023-08-02T08:46:51.385Z,7.43
2023-08-02T08:49:19.384Z,4.65
2023-08-02T08:51:48.193Z,5.63
2023-08-02T08:54:18.122Z,6.63
2023-08-02T08:56:46.088Z,4.65
2023-08-02T08:59:14.064Z,8.65
2023-08-02T09:01:42.386Z,2.78
2023-08-02T09:04:13.102Z,3.30
2023-08-02T09:06:41.200Z,3.42
2023-08-02T09:09:09.272Z,3.80
2023-08-02T09:11:37.342Z,2.35
2023-08-02T09:14:12.244Z,5.30
2023-08-02T09:16:55.735Z,6.45
2023-08-02T09:19:25.803Z,3.25
2023-08-02T09:22:12.641Z,6.05
2023-08-02T09:24:40.926Z,2.17
2023-08-02T09:27:13.686Z,2.83
2023-08-02T09:29:45.430Z,2.65
2023-08-02T09:32:13.997Z,2.10
2023-08-02T09:34:46.844Z,2.00
2023-08-02T09:37:15.118Z,3.72
2023-08-02T09:39:50.137Z,3.85
2023-08-02T09:42:18.684Z,2.67
2023-08-02T09:44:53.522Z,1.92
2023-08-02T09:47:22.637Z,3.28
2023-08-02T09:50:12.290Z,3.97
2023-08-02T09:52:40.715Z,3.20
2023-08-02T09:55:09.197Z,2.22
2023-08-02T09:57:37.289Z,1.40
2023-08-02T10:00:06.822Z,2.00
2023-08-02T10:02:43.889Z,1.63
2023-08-02T10:05:14.360Z,1.55
2023-08-02T10:07:44.543Z,1.20
2023-08-02T10:10:14.519Z,1.90
2023-08-02T10:12:42.590Z,1.40
2023-08-02T10:15:10.874Z,1.30
2023-08-02T10:17:39.181Z,1.77
2023-08-02T10:20:08.004Z,1.08
2023-08-02T10:22:38.154Z,1.75
2023-08-02T10:25:06.584Z,1.45
2023-08-02T10:27:34.969Z,2.15
2023-08-02T10:30:03.326Z,3.10
2023-08-02T10:32:31.434Z,2.75
2023-08-02T10:35:00.877Z,1.95
2023-08-02T10:37:43.869Z,4.30
2023-08-02T10:40:13.273Z,2.42
2023-08-02T10:43:02.774Z,0.98
2023-08-02T10:45:30.804Z,3.00
2023-08-02T10:48:13.817Z,9.73
2023-08-02T10:50:46.154Z,3.17
2023-08-02T10:53:14.236Z,4.88
2023-08-02T10:55:57.112Z,2.97
2023-08-02T10:58:26.741Z,1.83
2023-08-02T11:00:57.359Z,4.38
2023-08-02T11:03:29.582Z,2.78
2023-08-02T11:05:57.676Z,2.20
2023-08-02T11:08:25.762Z,1.67
2023-08-02T11:10:54.278Z,4.28
2023-08-02T11:13:22.753Z,4.75
2023-08-02T11:16:03.344Z,1.88
2023-08-02T11:18:32.141Z,2.50
2023-08-02T11:21:10.083Z,3.95
2023-08-02T11:23:38.098Z,8.13
2023-08-02T11:28:41.593Z,3.33
2023-08-02T11:31:10.998Z,3.30
2023-08-02T11:33:39.116Z,1.90
2023-08-02T11:36:07.211Z,1.58
2023-08-02T11:38:35.266Z,2.78
2023-08-02T11:41:03.300Z,2.97
2023-08-02T11:43:37.202Z,4.15
2023-08-02T11:46:15.175Z,3.40
2023-08-02T11:48:44.118Z,1.40
2023-08-02T11:51:12.418Z,6.25
2023-08-02T11:53:53.157Z,2.97
2023-08-02T11:56:21.674Z,2.17
2023-08-02T11:58:49.764Z,1.70
2023-08-02T12:01:19.224Z,3.15
2023-08-02T12:03:56.921Z,1.40
2023-08-02T12:06:25.271Z,1.60
2023-08-02T12:08:53.996Z,3.53
2023-08-02T12:11:22.272Z,3.63
2023-08-02T12:13:50.320Z,2.85
2023-08-02T12:16:19.806Z,3.08
2023-08-02T12:18:51.488Z,7.88
2023-08-02T12:21:19.808Z,3.47
2023-08-02T12:23:47.952Z,4.20
2023-08-02T12:26:28.758Z,3.17
2023-08-02T12:28:56.746Z,5.63
2023-08-02T12:31:26.247Z,4.50
2023-08-02T12:33:54.378Z,1.92
2023-08-02T12:36:25.689Z,3.10
2023-08-02T12:38:53.719Z,1.52
2023-08-02T12:41:22.215Z,5.38
2023-08-02T12:43:50.285Z,2.15
2023-08-02T12:46:18.824Z,1.27
2023-08-02T12:48:48.322Z,1.10
2023-08-02T12:51:16.418Z,1.05
2023-08-02T12:53:44.449Z,0.98
2023-08-02T12:56:13.184Z,1.98
2023-08-02T12:58:41.270Z,1.55
2023-08-02T13:01:09.336Z,1.75
2023-08-02T13:03:37.551Z,2.25
2023-08-02T13:06:07.088Z,2.88
2023-08-02T13:08:35.254Z,1.00
2023-08-02T13:11:03.403Z,1.90
2023-08-02T13:13:31.610Z,1.13
2023-08-02T13:15:59.722Z,1.95
2023-08-02T13:18:30.237Z,1.15
2023-08-02T13:20:59.106Z,1.23
2023-08-02T13:23:28.914Z,0.70
2023-08-02T13:25:57.013Z,2.22
2023-08-02T13:28:25.067Z,1.42
2023-08-02T13:30:53.963Z,1.17
2023-08-02T13:33:22.019Z,1.05
2023-08-02T13:35:50.181Z,1.15
2023-08-02T13:38:18.281Z,1.35
2023-08-02T13:40:47.939Z,2.00
2023-08-02T13:43:16.077Z,3.15
2023-08-02T13:45:44.337Z,2.97
2023-08-02T13:48:12.927Z,4.57
2023-08-02T13:50:41.007Z,8.43
2023-08-02T13:53:09.523Z,3.50
2023-08-02T13:55:37.546Z,1.50
2023-08-02T13:58:06.973Z,5.00
2023-08-02T14:00:35.013Z,1.00
2023-08-02T14:03:03.156Z,2.55
2023-08-02T14:05:31.327Z,4.22
2023-08-02T14:07:59.607Z,6.18
2023-08-02T14:10:27.668Z,2.90
2023-08-02T14:12:55.762Z,2.63
2023-08-02T14:15:25.387Z,3.85
2023-08-02T14:17:53.679Z,2.47
2023-08-02T14:20:21.786Z,3.53
2023-08-02T14:22:49.838Z,3.15
2023-08-02T14:25:17.922Z,8.88
2023-08-02T14:27:46.429Z,2.00
2023-08-02T14:30:14.536Z,3.55
2023-08-02T14:32:43.976Z,3.80
2023-08-02T14:35:12.078Z,2.30
2023-08-02T14:37:42.315Z,3.03
2023-08-02T14:40:10.833Z,3.63
2023-08-02T14:42:38.892Z,3.33
2023-08-02T14:45:07.622Z,4.60
2023-08-02T14:47:37.487Z,3.65
2023-08-02T14:50:07.529Z,3.47
2023-08-02T14:52:35.593Z,4.63
2023-08-02T14:55:03.820Z,4.80
2023-08-02T14:57:31.865Z,5.53
2023-08-02T14:59:59.921Z,7.30
2023-08-02T15:02:28.013Z,4.93
2023-08-02T15:04:56.209Z,4.63
2023-08-02T15:07:25.698Z,2.17
2023-08-02T15:09:53.702Z,4.57
2023-08-02T15:12:24.630Z,3.28
2023-08-02T15:14:52.777Z,3.67
2023-08-02T15:17:20.920Z,2.50
2023-08-02T15:19:49.001Z,1.90
2023-08-02T15:22:16.995Z,3.03
2023-08-02T15:24:46.366Z,5.00
2023-08-02T15:27:14.454Z,3.90
2023-08-02T15:29:42.492Z,2.90
2023-08-02T15:32:10.604Z,2.60
2023-08-02T15:34:39.880Z,6.47
2023-08-02T15:37:08.199Z,4.13
2023-08-02T15:39:36.247Z,6.10
2023-08-02T15:42:06.262Z,7.93
2023-08-02T15:44:34.299Z,2.30
2023-08-02T15:47:02.395Z,3.08
2023-08-02T15:49:30.625Z,6.03
2023-08-02T15:51:58.672Z,6.80
2023-08-02T15:54:26.747Z,7.95
2023-08-02T15:56:54.796Z,2.28
2023-08-02T15:59:24.332Z,5.20
2023-08-02T16:01:52.342Z,7.60
2023-08-02T16:04:20.513Z,3.28
2023-08-02T16:06:51.388Z,2.70
2023-08-02T16:09:19.543Z,2.72
2023-08-02T16:11:47.422Z,6.00
2023-08-02T16:14:15.416Z,5.80
2023-08-02T16:16:45.007Z,7.75
2023-08-02T16:19:13.198Z,1.90
2023-08-02T16:21:41.099Z,3.28
2023-08-02T16:24:09.011Z,2.50
2023-08-02T16:26:37.029Z,4.88
2023-08-02T16:29:05.042Z,2.78
2023-08-02T16:31:33.054Z,1.52
2023-08-02T16:34:02.455Z,3.33
2023-08-02T16:36:30.422Z,18.13
2023-08-02T16:38:58.400Z,4.97
2023-08-02T16:41:26.552Z,2.60
2023-08-02T16:43:54.539Z,6.03
2023-08-02T16:46:23.019Z,5.55
2023-08-02T16:48:51.066Z,3.70
2023-08-02T16:51:20.303Z,3.58
2023-08-02T16:53:48.229Z,17.08
2023-08-02T16:56:16.368Z,14.05
2023-08-02T16:58:44.333Z,24.85
2023-08-02T17:01:12.296Z,38.20
2023-08-02T17:03:40.235Z,23.80
2023-08-02T17:06:08.340Z,31.45
2023-08-02T17:08:37.749Z,50.95
2023-08-02T17:11:05.719Z,38.22
2023-08-02T17:13:33.670Z,36.60
2023-08-02T17:16:03.663Z,33.33
2023-08-02T17:18:31.727Z,36.85
2023-08-02T17:20:59.654Z,37.05
2023-08-02T17:23:27.544Z,33.72
2023-08-02T17:25:56.974Z,30.23
2023-08-02T17:28:25.190Z,33.42
2023-08-02T17:30:53.358Z,19.63
2023-08-02T17:33:21.331Z,12.98
2023-08-02T17:35:49.290Z,10.45
2023-08-02T17:38:17.300Z,10.73
2023-08-02T17:40:46.576Z,11.45
2023-08-02T17:43:16.217Z,11.65
2023-08-02T17:45:44.832Z,8.57
2023-08-02T17:48:17.430Z,13.40
2023-08-02T17:50:55.208Z,11.98
2023-08-02T17:53:23.256Z,11.57
2023-08-02T17:55:57.873Z,10.38
2023-08-02T17:58:28.933Z,13.30
2023-08-02T18:01:06.301Z,10.48
2023-08-02T18:03:34.306Z,8.45
2023-08-02T18:06:02.297Z,9.70
2023-08-02T18:08:30.205Z,10.23
2023-08-02T18:10:58.231Z,9.73
2023-08-02T18:13:27.518Z,9.50
2023-08-02T18:15:55.490Z,10.20
2023-08-02T18:18:23.420Z,8.05
2023-08-02T18:20:51.350Z,9.40
2023-08-02T18:23:19.235Z,11.52
2023-08-02T18:25:47.176Z,7.47
2023-08-02T18:28:15.190Z,7.40
2023-08-02T18:30:45.508Z,5.13
2023-08-02T18:33:15.260Z,16.02
2023-08-02T18:35:43.969Z,10.55
2023-08-02T18:38:12.056Z,10.05
2023-08-02T18:40:40.019Z,8.77
2023-08-02T18:43:07.916Z,11.93
2023-08-02T18:45:35.890Z,12.23
2023-08-02T18:48:05.570Z,9.48
2023-08-02T18:50:33.612Z,12.73
2023-08-02T18:53:01.598Z,13.68
2023-08-02T18:55:32.019Z,10.07
2023-08-02T18:57:59.993Z,11.23
2023-08-02T19:00:27.943Z,7.97
2023-08-02T19:02:56.270Z,9.40
2023-08-02T19:05:27.840Z,10.38
2023-08-02T19:07:56.397Z,7.15
2023-08-02T19:10:24.615Z,6.38
2023-08-02T19:12:52.748Z,6.75
2023-08-02T19:15:21.071Z,7.38
2023-08-02T19:17:49.066Z,5.25
2023-08-02T19:20:18.376Z,7.40
2023-08-02T19:22:48.126Z,4.63
2023-08-02T19:25:16.107Z,4.75
2023-08-02T19:27:44.173Z,3.80
2023-08-02T19:30:12.336Z,11.40
2023-08-02T19:32:40.304Z,6.93
2023-08-02T19:35:10.163Z,6.18
2023-08-02T19:37:38.127Z,7.57
2023-08-02T19:40:08.431Z,4.60
2023-08-02T19:42:38.678Z,9.68
2023-08-02T19:45:07.064Z,9.38
2023-08-02T19:47:35.070Z,6.65
2023-08-02T19:50:03.015Z,4.65
2023-08-02T19:52:31.044Z,8.00
2023-08-02T19:54:59.014Z,5.68
2023-08-02T19:57:28.941Z,5.72
2023-08-02T19:59:56.923Z,3.45
2023-08-02T20:02:33.412Z,7.63
2023-08-02T20:05:01.389Z,5.00
2023-08-02T20:07:29.282Z,4.82
2023-08-02T20:09:57.269Z,3.50
2023-08-02T20:12:25.188Z,3.25
2023-08-02T20:14:53.133Z,4.70
2023-08-02T20:17:21.204Z,3.47
2023-08-02T20:19:50.507Z,7.95
2023-08-02T20:22:18.978Z,3.40
2023-08-02T20:24:47.931Z,2.53
2023-08-02T20:27:15.786Z,2.50
2023-08-02T20:29:43.672Z,1.85
2023-08-02T20:32:16.491Z,3.42
2023-08-02T20:34:44.350Z,5.22
2023-08-02T20:37:13.602Z,1.52
2023-08-02T20:39:41.609Z,6.88
2023-08-02T20:42:09.791Z,7.10
2023-08-02T20:44:37.839Z,4.90
2023-08-02T20:47:06.628Z,2.35
2023-08-02T20:49:34.963Z,6.35
2023-08-02T20:52:03.559Z,1.73
2023-08-02T20:54:32.928Z,2.45
2023-08-02T20:57:00.949Z,4.53
2023-08-02T20:59:29.458Z,3.85
2023-08-02T21:01:57.463Z,2.83
2023-08-02T21:04:25.517Z,5.25
2023-08-02T21:07:01.481Z,2.97
2023-08-02T21:09:40.308Z,3.85
2023-08-02T21:12:08.617Z,2.30
2023-08-02T21:14:36.572Z,3.35
2023-08-02T21:17:05.277Z,2.78
2023-08-02T21:19:34.531Z,3.55
2023-08-02T21:22:02.959Z,2.72
2023-08-02T21:24:30.982Z,2.65
2023-08-02T21:27:00.204Z,2.20
2023-08-02T21:29:28.144Z,1.45
2023-08-02T21:31:56.470Z,4.32
2023-08-02T21:34:24.782Z,2.70
2023-08-02T21:36:52.762Z,1.33
2023-08-02T21:39:20.791Z,1.75
2023-08-02T21:41:48.651Z,1.42
2023-08-02T21:44:18.029Z,2.40
2023-08-02T21:46:46.083Z,3.60
2023-08-02T21:49:14.304Z,0.70
2023-08-02T21:51:42.714Z,2.08
2023-08-02T21:54:10.868Z,1.58
2023-08-02T21:56:38.930Z,2.47
2023-08-02T21:59:06.881Z,1.33
2023-08-02T22:01:36.424Z,1.02
2023-08-02T22:04:05.211Z,0.82
2023-08-02T22:06:34.286Z,0.52
2023-08-02T22:09:02.282Z,1.23
2023-08-02T22:11:30.270Z,2.47
2023-08-02T22:13:58.185Z,2.45
2023-08-02T22:16:26.255Z,0.90
2023-08-02T22:18:55.594Z,1.10
2023-08-02T22:21:23.674Z,1.42
2023-08-02T22:23:51.759Z,2.15
2023-08-02T22:26:20.294Z,0.45
2023-08-02T22:28:48.263Z,0.40
2023-08-02T22:31:16.254Z,0.55
2023-08-02T22:33:44.307Z,1.13
2023-08-02T22:36:13.630Z,1.17
2023-08-02T22:41:12.369Z,4.10
2023-08-02T22:43:40.438Z,5.78
2023-08-02T22:46:08.424Z,1.92
2023-08-02T22:51:07.431Z,2.45
2023-08-02T22:53:36.817Z,7.07
2023-08-02T22:56:04.968Z,5.70
2023-08-02T22:58:32.952Z,4.70
2023-08-02T23:01:01.637Z,5.40
2023-08-02T23:03:33.167Z,3.60
2023-08-02T23:06:01.237Z,2.05
2023-08-02T23:08:30.699Z,2.60
2023-08-02T23:11:00.017Z,3.60
2023-08-02T23:13:28.312Z,5.78
2023-08-02T23:15:56.322Z,2.33
2023-08-02T23:18:24.503Z,2.05
2023-08-02T23:20:53.745Z,1.02
2023-08-02T23:23:25.470Z,2.30
2023-08-02T23:26:01.113Z,3.55
2023-08-02T23:28:29.322Z,4.40
2023-08-02T23:30:57.406Z,4.95
2023-08-02T23:33:25.720Z,5.40
2023-08-02T23:35:53.670Z,3.05
2023-08-02T23:38:21.584Z,2.30
2023-08-02T23:40:49.556Z,1.67
2023-08-02T23:43:19.136Z,1.85
2023-08-02T23:45:47.033Z,2.40
2023-08-02T23:48:15.136Z,1.33
2023-08-02T23:50:43.442Z,1.10
2023-08-02T23:53:11.432Z,1.40
2023-08-02T23:55:39.747Z,0.55
2023-08-02T23:58:07.716Z,2.17
